Gann Valley, South Dakota
Current Conditions -  °F | °C
As of 5:55 PM on Monday 22 Dec 2014 (Local Time) from K9V9 Reporting Station
Light Snow Light Snow  
Wind Chill: 23°   Ceiling: 900
Heat Index: 32°   Visibility: 7mi
Dew Point: 30°   Wind: 13mph
Humidity: 93%   Direction: 320°NW
Pressure: 29.49"   Gusts: NA
Location:  44.03°N, 98.99°W
Report Text: K9V9 222355Z AUTO 32011KT 7SM -SN OVC009 00/M01 A2949 RMK AO2 T00001010 10019 20000
Loading
Personal Weather Stations






























Interactive Weather Map New forecast layout! Learn more

10-Day Weather Forecast

Advertisements
Track Severe Weather on mobile